Terminal Aerodrome Forecast
Issued by NWS

Home | Current Version | Previous Version | Text Only | Print | Product List | Glossary On
Versions: 1 2 3 4 5 6 7 8 9 10 11 12 13 14 15 16 17 18 19 20 21
000
FTUS43 KLSX 011200 AAA
TAFSUS
TAF AMD
KSUS 011206Z 0112/0212 26012G20KT 6SM -SHRA VCTS SCT030 BKN060CB
     FM011600 23011G18KT P6SM BKN035
     FM012200 22012KT 5SM -TSRA BR BKN030CB
     FM020300 23007KT P6SM -SHRA VCTS BKN050CB
     FM020600 23007KT P6SM SCT050 BKN100=

USA.gov is the U.S. government's official web portal to all federal, state and local government web resources and services.